Time;durP1;ratioP1;P1;durP2;ratioP2;P2;SDS_P1;SDS_P2;PMS_P1;PMS_P2;Temp;Humidity;BMP_temperature;BMP_pressure;BME280_temperature;BME280_humidity;BME280_pressure;Samples;Min_cycle;Max_cycle;Signal;HPM_P1;HPM_P2
2021/01/18 06:56:41;;;;;;;41.25;16.27;;;;;;;;;;5092990;27;20491;-67
2021/01/18 06:59:16;;;;;;;51.13;18.33;;;;;;;;;;5088305;28;20036;-64
2021/01/18 07:01:45;;;;;;;50.58;18.05;;;;;;;;;;5079141;28;20016;-68
2021/01/18 07:04:13;;;;;;;46.65;17.48;;;;;;;;;;5041144;28;20020;-64
2021/01/18 07:06:39;;;;;;;47.33;17.90;;;;;;;;;;5084632;28;20017;-65
2021/01/18 07:09:06;;;;;;;46.25;17.35;;;;;;;;;;5081349;28;20099;-62
2021/01/18 07:11:31;;;;;;;53.78;17.38;;;;;;;;;;5086195;28;20016;-63
2021/01/18 07:13:57;;;;;;;46.08;17.73;;;;;;;;;;5085396;28;20016;-62
2021/01/18 07:16:23;;;;;;;45.90;17.10;;;;;;;;;;5058999;28;20032;-61
2021/01/18 07:18:53;;;;;;;48.90;17.55;;;;;;;;;;5047207;28;20037;-62
2021/01/18 07:21:19;;;;;;;46.67;17.73;;;;;;;;;;5058375;28;20009;-63
2021/01/18 07:23:54;;;;;;;49.30;16.92;;;;;;;;;;5069603;28;20085;-63
2021/01/18 07:26:29;;;;;;;38.00;15.80;;;;;;;;;;5066563;28;20481;-63
2021/01/18 07:28:55;;;;;;;45.58;16.30;;;;;;;;;;5060085;28;22216;-65
2021/01/18 07:31:21;;;;;;;44.63;17.65;;;;;;;;;;5037193;28;20079;-63
2021/01/18 07:33:47;;;;;;;47.95;17.92;;;;;;;;;;5044938;28;20021;-62
2021/01/18 07:36:22;;;;;;;46.63;17.00;;;;;;;;;;5061574;28;20043;-64
2021/01/18 07:38:47;;;;;;;43.75;19.33;;;;;;;;;;5028273;28;20473;-64
2021/01/18 07:41:14;;;;;;;45.33;18.00;;;;;;;;;;5054431;28;20021;-63
2021/01/18 07:43:39;;;;;;;55.10;20.20;;;;;;;;;;5055488;28;20021;-65
2021/01/18 07:46:24;;;;;;;56.20;22.52;;;;;;;;;;5016954;28;20106;-61
2021/01/18 07:48:51;;;;;;;53.15;20.38;;;;;;;;;;5053454;28;20020;-61
2021/01/18 07:51:20;;;;;;;49.03;20.08;;;;;;;;;;5061149;28;20036;-62
2021/01/18 07:53:46;;;;;;;45.90;20.20;;;;;;;;;;5061878;28;20044;-62
2021/01/18 07:56:11;;;;;;;43.80;18.98;;;;;;;;;;5021038;28;20481;-64
2021/01/18 07:58:43;;;;;;;50.60;19.83;;;;;;;;;;5043764;28;20056;-62
2021/01/18 08:01:09;;;;;;;47.15;19.00;;;;;;;;;;5044704;28;20032;-64
2021/01/18 08:03:34;;;;;;;45.80;18.80;;;;;;;;;;5039867;28;20017;-63
2021/01/18 08:06:02;;;;;;;51.15;18.35;;;;;;;;;;5009663;28;20124;-63
2021/01/18 08:08:29;;;;;;;40.67;17.70;;;;;;;;;;5028088;28;20026;-65
2021/01/18 08:10:56;;;;;;;43.10;17.70;;;;;;;;;;5008880;28;20379;-63
2021/01/18 08:13:31;;;;;;;39.63;16.50;;;;;;;;;;5033374;28;20513;-63
2021/01/18 08:15:57;;;;;;;41.03;15.93;;;;;;;;;;5030271;28;20021;-64
2021/01/18 08:18:32;;;;;;;37.10;17.40;;;;;;;;;;5015347;28;20025;-65
2021/01/18 08:20:57;;;;;;;34.33;15.85;;;;;;;;;;5013223;28;20072;-64
2021/01/18 08:23:32;;;;;;;30.90;14.38;;;;;;;;;;5018868;28;20119;-66
2021/01/18 08:25:57;;;;;;;33.70;14.63;;;;;;;;;;5031328;28;20482;-67
2021/01/18 08:28:24;;;;;;;36.45;15.48;;;;;;;;;;5031905;28;20064;-67
2021/01/18 08:30:55;;;;;;;28.65;13.23;;;;;;;;;;5014367;28;20021;-67
2021/01/18 08:33:24;;;;;;;32.50;14.27;;;;;;;;;;5015101;28;20034;-67
2021/01/18 08:35:50;;;;;;;31.20;14.65;;;;;;;;;;5028507;28;20040;-67
2021/01/18 08:38:21;;;;;;;31.27;14.25;;;;;;;;;;5030505;28;20355;-66
2021/01/18 08:40:48;;;;;;;35.60;15.93;;;;;;;;;;5028204;28;20414;-70
2021/01/18 08:43:15;;;;;;;35.13;15.40;;;;;;;;;;5026807;28;20107;-71
2021/01/18 08:45:49;;;;;;;29.42;14.20;;;;;;;;;;5026961;28;20025;-69
2021/01/18 08:48:18;;;;;;;34.05;15.07;;;;;;;;;;5002044;28;20018;-69
2021/01/18 08:50:46;;;;;;;30.02;14.20;;;;;;;;;;5018189;28;20014;-72
2021/01/18 08:53:23;;;;;;;28.35;14.23;;;;;;;;;;5005757;28;20116;-70
2021/01/18 08:55:49;;;;;;;32.25;12.65;;;;;;;;;;5027238;28;20088;-68
2021/01/18 08:58:29;;;;;;;26.25;12.82;;;;;;;;;;5043453;28;20017;-66
2021/01/18 09:00:57;;;;;;;24.63;12.07;;;;;;;;;;5031730;28;20021;-67
2021/01/18 09:03:22;;;;;;;30.13;12.65;;;;;;;;;;5034229;28;20025;-68
2021/01/18 09:05:48;;;;;;;26.25;13.48;;;;;;;;;;5044594;28;20539;-68
2021/01/18 09:08:15;;;;;;;25.88;13.25;;;;;;;;;;5044608;28;20052;-70
2021/01/18 09:10:51;;;;;;;27.58;13.05;;;;;;;;;;5047288;28;20025;-68
2021/01/18 09:13:19;;;;;;;26.52;13.57;;;;;;;;;;5035799;28;20123;-66
2021/01/18 09:15:44;;;;;;;25.45;13.27;;;;;;;;;;5051698;28;20386;-66
2021/01/18 09:18:10;;;;;;;28.70;13.55;;;;;;;;;;5044884;28;20018;-65
2021/01/18 09:20:37;;;;;;;27.92;12.65;;;;;;;;;;5037620;28;20083;-68
2021/01/18 09:23:04;;;;;;;28.98;13.43;;;;;;;;;;5019893;28;20053;-65
2021/01/18 09:25:29;;;;;;;29.73;13.88;;;;;;;;;;5043277;28;20017;-67
2021/01/18 09:27:57;;;;;;;31.50;13.60;;;;;;;;;;5039261;28;20021;-65
2021/01/18 09:30:24;;;;;;;25.00;12.45;;;;;;;;;;5029862;28;20017;-65
2021/01/18 09:32:54;;;;;;;25.48;12.73;;;;;;;;;;5038713;28;20593;-66
2021/01/18 09:35:19;;;;;;;23.73;12.10;;;;;;;;;;5032749;28;20033;-68
2021/01/18 09:37:46;;;;;;;25.02;11.90;;;;;;;;;;5051180;28;20036;-66
2021/01/18 09:40:12;;;;;;;26.40;13.15;;;;;;;;;;5048962;28;20380;-68
2021/01/18 09:42:44;;;;;;;24.65;12.52;;;;;;;;;;5034123;28;20156;-68
2021/01/18 09:45:12;;;;;;;21.48;11.27;;;;;;;;;;5038925;28;20478;-67
2021/01/18 09:47:37;;;;;;;20.73;11.73;;;;;;;;;;5044755;28;20032;-68
2021/01/18 09:50:04;;;;;;;24.60;11.80;;;;;;;;;;5020177;28;20029;-67
2021/01/18 09:52:30;;;;;;;25.00;12.80;;;;;;;;;;5037949;28;20036;-67
2021/01/18 09:54:56;;;;;;;22.73;12.73;;;;;;;;;;5035485;28;20082;-66
2021/01/18 09:57:22;;;;;;;24.10;12.73;;;;;;;;;;5039800;28;20013;-67
2021/01/18 09:59:49;;;;;;;20.52;11.25;;;;;;;;;;5047387;28;20024;-65
2021/01/18 10:02:15;;;;;;;20.55;11.35;;;;;;;;;;5046314;28;20124;-67
2021/01/18 10:04:41;;;;;;;21.52;11.15;;;;;;;;;;5044300;28;20111;-66
2021/01/18 10:07:09;;;;;;;23.13;11.85;;;;;;;;;;5036686;28;20014;-66
2021/01/18 10:09:34;;;;;;;25.45;12.57;;;;;;;;;;5032589;28;20101;-68
2021/01/18 10:12:02;;;;;;;28.95;13.20;;;;;;;;;;5020759;28;20091;-64
2021/01/18 10:14:28;;;;;;;26.58;11.93;;;;;;;;;;5022165;28;20033;-64
2021/01/18 10:16:57;;;;;;;20.15;10.90;;;;;;;;;;5048064;28;20021;-65
2021/01/18 10:19:23;;;;;;;21.80;11.95;;;;;;;;;;5034553;28;20401;-63
2021/01/18 10:21:49;;;;;;;22.60;11.73;;;;;;;;;;5019470;28;20393;-65
2021/01/18 10:24:33;;;;;;;23.17;11.38;;;;;;;;;;5037033;28;20083;-65
2021/01/18 10:27:03;;;;;;;18.63;10.65;;;;;;;;;;5039947;28;20458;-65
2021/01/18 10:29:29;;;;;;;20.55;11.25;;;;;;;;;;5042225;28;20018;-67
2021/01/18 10:31:55;;;;;;;18.75;10.48;;;;;;;;;;5026140;28;20017;-66
2021/01/18 10:34:20;;;;;;;20.75;11.18;;;;;;;;;;5025740;28;20021;-65
2021/01/18 10:36:47;;;;;;;24.85;12.18;;;;;;;;;;5040810;28;20028;-66
2021/01/18 10:39:22;;;;;;;19.05;10.68;;;;;;;;;;5030145;28;20048;-66
2021/01/18 10:41:47;;;;;;;19.77;10.63;;;;;;;;;;5049783;28;20103;-66
2021/01/18 10:44:14;;;;;;;21.48;12.32;;;;;;;;;;5048866;28;20477;-67
2021/01/18 10:46:39;;;;;;;21.58;11.10;;;;;;;;;;5032477;28;20064;-66
2021/01/18 10:49:05;;;;;;;20.30;10.82;;;;;;;;;;5049348;28;20415;-65
2021/01/18 10:51:30;;;;;;;22.17;10.70;;;;;;;;;;5044769;28;20032;-66
2021/01/18 10:53:56;;;;;;;34.25;21.38;;;;;;;;;;5049784;28;20090;-66
2021/01/18 10:56:22;;;;;;;20.17;11.05;;;;;;;;;;5046990;28;20422;-66
2021/01/18 10:58:55;;;;;;;23.92;11.98;;;;;;;;;;5046847;28;20024;-65
2021/01/18 11:01:21;;;;;;;20.23;10.50;;;;;;;;;;5048049;28;20381;-67
2021/01/18 11:03:47;;;;;;;19.25;9.95;;;;;;;;;;5050153;28;20104;-66
2021/01/18 11:06:14;;;;;;;19.70;10.60;;;;;;;;;;5049876;28;20393;-67
2021/01/18 11:08:39;;;;;;;18.17;10.30;;;;;;;;;;5048111;28;20047;-66
2021/01/18 11:11:14;;;;;;;18.92;10.25;;;;;;;;;;5049326;28;20518;-66
2021/01/18 11:13:41;;;;;;;22.52;10.27;;;;;;;;;;5049352;28;20470;-67
2021/01/18 11:16:10;;;;;;;20.95;10.73;;;;;;;;;;5050252;28;20449;-65
2021/01/18 11:18:35;;;;;;;20.08;11.10;;;;;;;;;;5051685;28;20036;-65
2021/01/18 11:21:01;;;;;;;25.58;10.82;;;;;;;;;;5050671;28;20033;-65
2021/01/18 11:23:27;;;;;;;21.48;10.35;;;;;;;;;;5048674;28;20025;-65
2021/01/18 11:25:53;;;;;;;19.80;10.15;;;;;;;;;;5051037;28;20108;-66
2021/01/18 11:28:19;;;;;;;18.67;10.50;;;;;;;;;;5049869;28;20108;-66
2021/01/18 11:30:44;;;;;;;17.42;9.77;;;;;;;;;;5050525;28;20021;-65
2021/01/18 11:33:10;;;;;;;29.27;11.43;;;;;;;;;;5050261;28;20366;-66
2021/01/18 11:35:37;;;;;;;28.05;10.98;;;;;;;;;;5049566;28;20033;-65
2021/01/18 11:38:02;;;;;;;21.25;9.93;;;;;;;;;;5049451;28;20017;-66
2021/01/18 11:40:28;;;;;;;18.80;10.25;;;;;;;;;;5050518;28;20017;-65
2021/01/18 11:42:57;;;;;;;19.73;10.43;;;;;;;;;;5052792;28;20012;-65
2021/01/18 11:45:23;;;;;;;21.48;10.60;;;;;;;;;;5053361;28;20028;-66
2021/01/18 11:47:49;;;;;;;17.42;9.27;;;;;;;;;;5054466;28;20035;-66
2021/01/18 11:50:14;;;;;;;19.42;9.20;;;;;;;;;;5052522;28;20083;-67
2021/01/18 11:52:40;;;;;;;17.88;10.02;;;;;;;;;;5053531;28;20075;-65
2021/01/18 11:55:06;;;;;;;19.35;9.82;;;;;;;;;;5052519;28;20048;-65
2021/01/18 11:57:31;;;;;;;16.50;9.40;;;;;;;;;;5049284;28;20025;-66
2021/01/18 11:59:57;;;;;;;18.52;9.55;;;;;;;;;;5033268;28;20109;-66
2021/01/18 12:02:22;;;;;;;16.10;8.90;;;;;;;;;;5022357;28;20039;-69
2021/01/18 12:04:48;;;;;;;19.73;8.82;;;;;;;;;;5050709;28;20075;-67
2021/01/18 12:07:13;;;;;;;18.05;8.35;;;;;;;;;;5036318;28;20025;-65
2021/01/18 12:09:39;;;;;;;17.27;8.45;;;;;;;;;;5040514;28;20113;-65
2021/01/18 12:12:05;;;;;;;19.13;8.93;;;;;;;;;;5051056;28;20490;-67
2021/01/18 12:14:30;;;;;;;17.58;8.25;;;;;;;;;;5050812;28;20017;-66
2021/01/18 12:16:59;;;;;;;21.35;8.80;;;;;;;;;;5045741;28;20020;-64
2021/01/18 12:19:25;;;;;;;17.02;7.80;;;;;;;;;;5047726;28;20512;-65
2021/01/18 12:21:51;;;;;;;14.63;8.00;;;;;;;;;;5048862;28;20017;-64
2021/01/18 12:24:16;;;;;;;15.23;8.70;;;;;;;;;;5039583;28;20383;-65
2021/01/18 12:26:42;;;;;;;20.38;8.65;;;;;;;;;;5052799;28;20028;-65
2021/01/18 12:29:07;;;;;;;16.50;8.68;;;;;;;;;;5050997;28;20021;-65
2021/01/18 12:31:36;;;;;;;16.75;8.85;;;;;;;;;;5041984;28;20466;-65
2021/01/18 12:34:03;;;;;;;20.92;8.38;;;;;;;;;;5050888;28;20029;-65
2021/01/18 12:36:28;;;;;;;16.40;8.20;;;;;;;;;;5036986;28;20025;-64
2021/01/18 12:38:54;;;;;;;14.27;7.78;;;;;;;;;;5032226;28;20119;-65
2021/01/18 12:41:19;;;;;;;15.00;8.07;;;;;;;;;;5015079;28;20233;-67
2021/01/18 12:43:45;;;;;;;16.30;7.50;;;;;;;;;;5032302;28;20076;-65
2021/01/18 12:46:11;;;;;;;19.60;9.07;;;;;;;;;;5032231;28;20045;-65
2021/01/18 12:48:36;;;;;;;19.52;9.05;;;;;;;;;;5032416;28;20100;-65
2021/01/18 12:51:02;;;;;;;17.83;9.20;;;;;;;;;;5047690;28;20109;-65
2021/01/18 12:56:02;;;;;;;19.05;10.13;;;;;;;;;;5035058;28;20037;-64
2021/01/18 12:58:28;;;;;;;17.52;8.98;;;;;;;;;;5052362;28;20359;-63
2021/01/18 13:00:53;;;;;;;16.88;9.95;;;;;;;;;;5051230;28;20475;-64
2021/01/18 13:03:18;;;;;;;18.27;8.90;;;;;;;;;;5052199;28;20063;-64
2021/01/18 13:05:44;;;;;;;18.13;8.57;;;;;;;;;;5052302;28;20033;-64
2021/01/18 13:08:10;;;;;;;17.40;9.55;;;;;;;;;;5052303;28;20231;-65
2021/01/18 13:10:36;;;;;;;20.13;9.85;;;;;;;;;;5051429;28;20029;-64
2021/01/18 13:13:01;;;;;;;23.20;10.13;;;;;;;;;;5051528;28;20075;-63
2021/01/18 13:15:28;;;;;;;24.73;10.95;;;;;;;;;;5051948;28;20017;-64
2021/01/18 13:17:53;;;;;;;23.55;10.55;;;;;;;;;;5052462;28;20021;-66
2021/01/18 13:20:18;;;;;;;24.98;11.60;;;;;;;;;;5033632;28;20531;-66
2021/01/18 13:22:44;;;;;;;24.73;11.18;;;;;;;;;;5051245;28;20028;-66
2021/01/18 13:25:10;;;;;;;35.83;14.90;;;;;;;;;;5045745;28;20270;-66
2021/01/18 13:27:35;;;;;;;28.77;12.50;;;;;;;;;;5046552;28;20351;-65
2021/01/18 13:30:00;;;;;;;25.38;11.95;;;;;;;;;;5049118;28;20070;-65
2021/01/18 13:32:26;;;;;;;24.75;12.60;;;;;;;;;;5051820;28;20036;-66
2021/01/18 13:34:51;;;;;;;25.25;12.02;;;;;;;;;;5049514;28;20035;-65
2021/01/18 13:37:17;;;;;;;26.48;11.88;;;;;;;;;;5051845;28;20086;-67
2021/01/18 13:39:42;;;;;;;20.52;10.65;;;;;;;;;;5051711;28;20040;-65
2021/01/18 13:42:08;;;;;;;28.05;12.10;;;;;;;;;;5051417;28;20370;-66
2021/01/18 13:44:33;;;;;;;26.63;12.00;;;;;;;;;;5049996;28;20016;-73
2021/01/18 13:46:59;;;;;;;26.80;12.40;;;;;;;;;;5050031;28;20025;-68
2021/01/18 13:49:24;;;;;;;38.55;14.27;;;;;;;;;;5043706;28;20459;-68
2021/01/18 13:51:50;;;;;;;24.15;11.35;;;;;;;;;;5039371;28;20516;-66
2021/01/18 13:54:15;;;;;;;23.38;11.30;;;;;;;;;;5050577;28;20114;-67
2021/01/18 13:56:41;;;;;;;24.35;12.10;;;;;;;;;;5038177;28;20052;-67
2021/01/18 13:59:06;;;;;;;27.23;11.55;;;;;;;;;;5031530;28;20018;-67
2021/01/18 14:01:32;;;;;;;28.45;11.55;;;;;;;;;;5043663;28;20049;-67
2021/01/18 14:03:59;;;;;;;30.55;11.23;;;;;;;;;;5040381;28;20025;-67
2021/01/18 14:06:25;;;;;;;21.70;10.75;;;;;;;;;;5040752;28;20489;-65
2021/01/18 14:08:51;;;;;;;23.27;11.00;;;;;;;;;;5051611;28;20051;-68
2021/01/18 14:11:17;;;;;;;24.73;10.88;;;;;;;;;;5017752;28;20025;-68
2021/01/18 14:13:42;;;;;;;26.63;11.52;;;;;;;;;;5014059;28;20040;-69
2021/01/18 14:16:10;;;;;;;26.27;12.23;;;;;;;;;;5029347;28;20092;-65
2021/01/18 14:18:36;;;;;;;22.43;11.43;;;;;;;;;;5046181;28;20532;-64
2021/01/18 14:21:01;;;;;;;25.73;11.68;;;;;;;;;;5041463;28;20056;-66
2021/01/18 14:23:27;;;;;;;26.60;11.52;;;;;;;;;;5035388;28;20013;-66
2021/01/18 14:25:52;;;;;;;25.60;10.55;;;;;;;;;;5049773;28;20044;-66
2021/01/18 14:28:18;;;;;;;20.60;10.38;;;;;;;;;;5051453;28;20021;-67
2021/01/18 14:30:44;;;;;;;23.13;10.90;;;;;;;;;;5033214;28;20009;-68
2021/01/18 14:33:09;;;;;;;31.55;12.68;;;;;;;;;;5043203;28;20378;-67
2021/01/18 14:35:34;;;;;;;22.88;10.98;;;;;;;;;;5031510;28;20017;-67
2021/01/18 14:38:00;;;;;;;23.52;10.95;;;;;;;;;;5047969;28;20032;-68
2021/01/18 14:40:25;;;;;;;22.20;11.15;;;;;;;;;;5046625;28;20025;-68
2021/01/18 14:42:51;;;;;;;25.38;12.63;;;;;;;;;;5048647;28;20043;-67
2021/01/18 14:45:16;;;;;;;26.98;11.93;;;;;;;;;;5044509;28;20040;-67
2021/01/18 14:47:42;;;;;;;28.15;11.57;;;;;;;;;;5041308;28;20040;-67
2021/01/18 14:50:09;;;;;;;34.10;13.52;;;;;;;;;;5028347;28;21055;-67
2021/01/18 14:52:35;;;;;;;31.52;13.10;;;;;;;;;;5038021;28;20017;-67
2021/01/18 14:55:01;;;;;;;25.70;11.52;;;;;;;;;;5038289;28;20057;-66
2021/01/18 14:57:27;;;;;;;29.40;12.07;;;;;;;;;;5043884;28;20024;-66
2021/01/18 14:59:52;;;;;;;25.23;11.50;;;;;;;;;;5026649;28;20634;-67
2021/01/18 15:02:18;;;;;;;30.27;13.75;;;;;;;;;;5043451;28;20474;-66
2021/01/18 15:04:44;;;;;;;32.95;13.40;;;;;;;;;;5045604;28;20047;-66
2021/01/18 15:07:10;;;;;;;30.40;13.02;;;;;;;;;;5042001;28;20025;-67
2021/01/18 15:09:35;;;;;;;32.15;13.05;;;;;;;;;;5024328;28;20047;-68
2021/01/18 15:12:01;;;;;;;26.67;11.95;;;;;;;;;;5040581;28;20029;-70
2021/01/18 15:14:26;;;;;;;31.65;12.13;;;;;;;;;;5041651;28;20067;-68
2021/01/18 15:16:51;;;;;;;26.90;11.55;;;;;;;;;;5048994;28;20078;-66
2021/01/18 15:19:17;;;;;;;29.08;12.13;;;;;;;;;;5040995;28;20017;-67
2021/01/18 15:21:44;;;;;;;30.10;11.50;;;;;;;;;;5044868;28;20036;-68
2021/01/18 15:24:09;;;;;;;30.10;12.10;;;;;;;;;;5037472;28;20029;-68
2021/01/18 15:26:35;;;;;;;27.80;13.07;;;;;;;;;;5045874;28;20036;-66
2021/01/18 15:29:00;;;;;;;29.48;12.52;;;;;;;;;;5039582;28;20013;-67
2021/01/18 15:31:26;;;;;;;31.90;13.05;;;;;;;;;;5039547;28;20100;-71
2021/01/18 15:33:51;;;;;;;31.42;12.90;;;;;;;;;;5046199;28;20072;-67
2021/01/18 15:36:17;;;;;;;35.38;14.52;;;;;;;;;;5053421;28;20037;-68
2021/01/18 15:38:44;;;;;;;36.08;13.70;;;;;;;;;;5054621;28;20739;-67
2021/01/18 15:41:14;;;;;;;38.47;13.93;;;;;;;;;;5037234;28;20101;-67
2021/01/18 15:43:40;;;;;;;27.80;12.45;;;;;;;;;;5054783;28;20024;-67
2021/01/18 15:46:07;;;;;;;33.80;13.20;;;;;;;;;;5054451;28;20620;-67
2021/01/18 15:48:33;;;;;;;30.55;12.70;;;;;;;;;;5036751;28;20088;-67
2021/01/18 15:50:58;;;;;;;31.52;13.70;;;;;;;;;;5036768;28;20039;-67
2021/01/18 15:53:23;;;;;;;32.70;14.43;;;;;;;;;;5054608;28;20032;-67
2021/01/18 15:55:49;;;;;;;30.98;14.20;;;;;;;;;;5022416;28;20064;-67
2021/01/18 15:58:14;;;;;;;37.15;13.27;;;;;;;;;;5034750;28;20017;-67
2021/01/18 16:00:40;;;;;;;43.25;14.50;;;;;;;;;;5034425;28;20075;-67
2021/01/18 16:03:05;;;;;;;34.75;14.45;;;;;;;;;;5034354;28;20382;-67
2021/01/18 16:05:31;;;;;;;42.33;15.80;;;;;;;;;;5034641;28;20021;-67
2021/01/18 16:07:56;;;;;;;37.13;15.50;;;;;;;;;;5034470;28;20063;-66
2021/01/18 16:10:21;;;;;;;37.00;14.32;;;;;;;;;;5034734;28;20497;-67
2021/01/18 16:12:47;;;;;;;39.70;16.75;;;;;;;;;;5034642;28;20132;-66
2021/01/18 16:15:13;;;;;;;48.72;16.42;;;;;;;;;;5034310;28;20013;-67
2021/01/18 16:17:39;;;;;;;52.90;15.63;;;;;;;;;;5034194;28;20013;-67
2021/01/18 16:20:06;;;;;;;45.55;17.25;;;;;;;;;;5016147;28;20018;-66
2021/01/18 16:22:32;;;;;;;44.38;16.63;;;;;;;;;;5033983;28;20462;-67
2021/01/18 16:24:57;;;;;;;42.65;17.98;;;;;;;;;;5033983;28;20029;-66
2021/01/18 16:27:22;;;;;;;35.95;15.82;;;;;;;;;;5033894;28;20033;-67
2021/01/18 16:29:48;;;;;;;36.13;15.88;;;;;;;;;;5016597;28;20076;-67
2021/01/18 16:32:14;;;;;;;40.35;15.05;;;;;;;;;;5033507;28;20108;-67
2021/01/18 16:34:41;;;;;;;31.52;14.63;;;;;;;;;;5033750;28;20033;-66
2021/01/18 16:37:07;;;;;;;38.88;15.77;;;;;;;;;;5033995;28;20025;-66
2021/01/18 16:39:33;;;;;;;45.33;17.48;;;;;;;;;;5016284;28;20021;-67
2021/01/18 16:41:59;;;;;;;47.58;18.95;;;;;;;;;;5016125;28;20517;-67
2021/01/18 16:44:24;;;;;;;46.10;19.70;;;;;;;;;;5015882;28;20014;-67
